Time;durP1;ratioP1;P1;durP2;ratioP2;P2;SDS_P1;SDS_P2;PMS_P1;PMS_P2;Temp;Humidity;BMP_temperature;BMP_pressure;BME280_temperature;BME280_humidity;BME280_pressure;Samples;Min_cycle;Max_cycle;Signal;HPM_P1;HPM_P2
2023/11/11 00:00:54;;;;;;;4.43;0.80;;;9.20;99.90;;;;;;2075831;28;20905;-73
2023/11/11 00:01:55;;;;;;;1.65;0.60;;;9.20;99.90;;;;;;2077025;28;20470;-73
2023/11/11 00:02:56;;;;;;;0.70;0.45;;;9.20;99.90;;;;;;2077808;28;20160;-72
2023/11/11 00:03:56;;;;;;;0.70;0.70;;;9.30;99.90;;;;;;2076029;28;20044;-71
2023/11/11 00:04:57;;;;;;;1.33;0.60;;;9.30;99.90;;;;;;2078995;28;20485;-73
2023/11/11 00:05:58;;;;;;;0.65;0.65;;;9.30;99.90;;;;;;2074368;28;20021;-73
2023/11/11 00:06:59;;;;;;;1.20;1.10;;;9.30;99.90;;;;;;2073868;28;20470;-73
2023/11/11 00:08:01;;;;;;;1.45;1.23;;;9.30;99.90;;;;;;2074627;28;20014;-73
2023/11/11 00:09:01;;;;;;;1.25;1.20;;;9.30;99.90;;;;;;2075576;28;20075;-74
2023/11/11 00:10:03;;;;;;;1.13;1.02;;;9.30;99.90;;;;;;2076481;28;20025;-73
2023/11/11 00:11:05;;;;;;;1.67;0.77;;;9.40;99.90;;;;;;2074338;28;20121;-73
2023/11/11 00:12:07;;;;;;;1.85;0.90;;;9.40;99.90;;;;;;2073101;28;20132;-73
2023/11/11 00:13:08;;;;;;;0.68;0.68;;;9.40;99.90;;;;;;2074161;28;20672;-74
2023/11/11 00:14:09;;;;;;;2.33;1.00;;;9.40;99.90;;;;;;2073439;28;21214;-73
2023/11/11 00:15:10;;;;;;;0.60;0.57;;;9.40;99.90;;;;;;2077447;28;20155;-73
2023/11/11 00:16:10;;;;;;;1.45;0.82;;;9.40;99.90;;;;;;2076951;28;20134;-73
2023/11/11 00:17:11;;;;;;;1.13;0.90;;;9.50;99.90;;;;;;2076243;28;20087;-73
2023/11/11 00:18:12;;;;;;;0.82;0.70;;;9.50;99.90;;;;;;2077230;28;20029;-74
2023/11/11 00:19:13;;;;;;;1.05;0.70;;;9.50;99.90;;;;;;2077130;28;20044;-73
2023/11/11 00:24:11;;;;;;;1.25;0.80;;;9.40;99.90;;;;;;2075483;28;20037;-73
2023/11/11 00:25:16;;;;;;;0.88;0.63;;;9.40;99.90;;;;;;2073514;28;20104;-74
2023/11/11 00:26:16;;;;;;;0.60;0.50;;;9.40;99.90;;;;;;2077292;28;20017;-73
2023/11/11 00:27:18;;;;;;;0.85;0.70;;;9.40;99.90;;;;;;2076126;28;21058;-73
2023/11/11 00:28:18;;;;;;;1.45;0.80;;;9.50;99.90;;;;;;2075527;28;20133;-74
2023/11/11 00:29:19;;;;;;;1.10;0.73;;;9.50;99.90;;;;;;2074190;28;20028;-73
2023/11/11 00:30:19;;;;;;;1.10;1.00;;;9.50;99.90;;;;;;2075385;28;20089;-73
2023/11/11 00:31:20;;;;;;;1.10;1.00;;;9.50;99.90;;;;;;2074030;28;20048;-73
2023/11/11 00:32:22;;;;;;;0.85;0.82;;;9.50;99.90;;;;;;2074337;28;20514;-72
2023/11/11 00:33:23;;;;;;;1.05;0.60;;;9.50;99.90;;;;;;2073882;28;21228;-73
2023/11/11 00:34:23;;;;;;;1.17;0.98;;;9.50;99.90;;;;;;2073765;28;20490;-73
2023/11/11 00:35:24;;;;;;;0.60;0.60;;;9.50;99.90;;;;;;2074307;28;20025;-73
2023/11/11 00:36:25;;;;;;;1.92;0.80;;;9.50;99.90;;;;;;2074411;28;20033;-74
2023/11/11 00:37:26;;;;;;;1.02;0.90;;;9.50;99.90;;;;;;2073637;28;20024;-73
2023/11/11 00:38:26;;;;;;;2.20;0.80;;;9.60;99.90;;;;;;2073356;28;20022;-74
2023/11/11 00:39:33;;;;;;;1.73;1.13;;;9.60;99.90;;;;;;2074153;28;20427;-72
2023/11/11 00:40:33;;;;;;;3.05;1.10;;;9.60;99.90;;;;;;2074061;28;20040;-73
2023/11/11 00:41:34;;;;;;;0.95;0.70;;;9.60;99.90;;;;;;2074965;28;20108;-74
2023/11/11 00:42:34;;;;;;;2.58;0.80;;;9.60;99.90;;;;;;2074712;28;20092;-74
2023/11/11 00:43:35;;;;;;;1.83;0.98;;;9.60;99.90;;;;;;2076256;28;20036;-73
2023/11/11 00:44:37;;;;;;;1.35;0.73;;;9.60;99.90;;;;;;2074799;28;20156;-72
2023/11/11 00:45:38;;;;;;;1.35;1.13;;;9.60;99.90;;;;;;2073524;28;20018;-73
2023/11/11 00:46:39;;;;;;;2.67;1.10;;;9.60;99.90;;;;;;2074025;28;20065;-74
2023/11/11 00:47:40;;;;;;;2.03;1.38;;;9.60;99.90;;;;;;2078172;28;20018;-72
2023/11/11 00:48:41;;;;;;;0.82;0.82;;;9.60;99.90;;;;;;2077174;28;20112;-74
2023/11/11 00:49:41;;;;;;;2.10;1.30;;;9.60;99.90;;;;;;2074110;28;20417;-73
2023/11/11 00:50:42;;;;;;;1.95;1.23;;;9.60;99.90;;;;;;2075154;28;20690;-74
2023/11/11 00:51:43;;;;;;;1.05;0.90;;;9.60;99.90;;;;;;2076546;28;20390;-74
2023/11/11 00:52:44;;;;;;;1.95;0.93;;;9.60;99.90;;;;;;2074609;28;20049;-74
2023/11/11 00:57:39;;;;;;;1.70;1.60;;;9.50;99.90;;;;;;2073545;28;20049;-74
2023/11/11 00:58:39;;;;;;;1.42;1.33;;;9.50;99.90;;;;;;2073127;28;20050;-74
2023/11/11 00:59:40;;;;;;;1.48;1.30;;;9.50;99.90;;;;;;2072180;28;20018;-74
2023/11/11 01:00:42;;;;;;;2.15;1.48;;;9.50;99.90;;;;;;2075073;28;20401;-74
2023/11/11 01:01:43;;;;;;;2.08;1.42;;;9.60;99.90;;;;;;2076270;28;20071;-72
2023/11/11 01:02:44;;;;;;;2.47;1.40;;;9.60;99.90;;;;;;2074789;28;20022;-72
2023/11/11 01:03:45;;;;;;;1.70;1.60;;;9.50;99.90;;;;;;2073624;28;20014;-74
2023/11/11 01:04:45;;;;;;;1.42;1.33;;;9.60;99.90;;;;;;2072501;28;20478;-75
2023/11/11 01:05:46;;;;;;;1.38;1.27;;;9.60;99.90;;;;;;2074116;28;20025;-74
2023/11/11 01:06:47;;;;;;;1.33;1.23;;;9.60;99.90;;;;;;2074009;28;20037;-74
2023/11/11 01:07:47;;;;;;;3.72;1.42;;;9.60;99.90;;;;;;2074177;28;20034;-74
2023/11/11 01:08:48;;;;;;;1.70;1.45;;;9.60;99.90;;;;;;2074754;28;20028;-73
2023/11/11 01:09:52;;;;;;;2.63;1.70;;;9.60;99.90;;;;;;2074398;28;20461;-74
2023/11/11 01:10:53;;;;;;;2.85;2.00;;;9.60;99.90;;;;;;2074065;28;20022;-73
2023/11/11 01:11:54;;;;;;;2.63;2.00;;;9.60;99.90;;;;;;2076748;28;20768;-73
2023/11/11 01:12:55;;;;;;;2.53;2.03;;;9.60;99.90;;;;;;2073937;28;20023;-73
2023/11/11 01:13:55;;;;;;;2.53;2.10;;;9.60;99.90;;;;;;2074346;28;20494;-73
2023/11/11 01:14:56;;;;;;;1.90;1.77;;;9.60;99.90;;;;;;2074850;28;20064;-73
2023/11/11 01:15:59;;;;;;;2.42;2.22;;;9.60;99.90;;;;;;2074152;28;20025;-73
2023/11/11 01:17:03;;;;;;;4.57;2.75;;;9.60;99.90;;;;;;2073078;28;20086;-73
2023/11/11 01:18:04;;;;;;;2.80;2.30;;;9.60;99.90;;;;;;2074414;28;20029;-73
2023/11/11 01:19:04;;;;;;;2.78;2.10;;;9.60;99.90;;;;;;2073913;28;20433;-73
2023/11/11 01:20:06;;;;;;;3.13;2.83;;;9.60;99.90;;;;;;2074401;28;20033;-74
2023/11/11 01:21:06;;;;;;;3.22;2.65;;;9.60;99.90;;;;;;2074621;28;20049;-74
2023/11/11 01:22:09;;;;;;;3.17;2.67;;;9.60;99.90;;;;;;2074192;28;20036;-74
2023/11/11 01:23:09;;;;;;;2.95;2.75;;;9.60;99.90;;;;;;2075196;28;20064;-75
2023/11/11 01:24:10;;;;;;;4.07;3.00;;;9.60;99.90;;;;;;2076507;28;20038;-74
2023/11/11 01:25:12;;;;;;;3.40;3.10;;;9.60;99.90;;;;;;2077819;28;20017;-73
2023/11/11 01:26:12;;;;;;;3.17;2.90;;;9.60;99.90;;;;;;2073627;28;20024;-74
2023/11/11 01:27:13;;;;;;;3.53;3.22;;;9.60;99.90;;;;;;2075084;28;20067;-74
2023/11/11 01:28:15;;;;;;;3.15;2.85;;;9.60;99.90;;;;;;2075540;28;20639;-73
2023/11/11 01:29:15;;;;;;;3.83;3.17;;;9.60;99.90;;;;;;2073355;28;20018;-74
2023/11/11 01:30:16;;;;;;;3.58;3.28;;;9.60;99.90;;;;;;2074203;28;20026;-75
2023/11/11 01:31:18;;;;;;;4.38;3.70;;;9.60;99.90;;;;;;2076289;28;20021;-74
2023/11/11 01:32:19;;;;;;;2.72;2.53;;;9.60;99.90;;;;;;2074971;28;20041;-74
2023/11/11 01:33:19;;;;;;;3.63;3.33;;;9.60;99.90;;;;;;2073271;28;20053;-74
2023/11/11 01:34:20;;;;;;;3.92;3.05;;;9.60;99.90;;;;;;2072565;28;20037;-75
2023/11/11 01:35:21;;;;;;;3.30;2.97;;;9.60;99.90;;;;;;2074175;28;20029;-74
2023/11/11 01:36:21;;;;;;;4.18;3.20;;;9.60;99.90;;;;;;2075101;28;20057;-74
2023/11/11 01:37:22;;;;;;;3.50;3.15;;;9.60;99.90;;;;;;2073881;28;20435;-73
2023/11/11 01:38:22;;;;;;;4.03;3.63;;;9.60;99.90;;;;;;2073918;28;20788;-74
2023/11/11 01:39:23;;;;;;;3.83;3.53;;;9.60;99.90;;;;;;2070389;28;20351;-72
2023/11/11 01:40:24;;;;;;;4.75;4.32;;;9.60;99.90;;;;;;2074115;28;20109;-74
2023/11/11 01:41:24;;;;;;;3.35;3.05;;;9.60;99.90;;;;;;2074426;28;20092;-72
2023/11/11 01:42:25;;;;;;;4.25;3.85;;;9.60;99.90;;;;;;2074937;28;20084;-73
2023/11/11 01:43:25;;;;;;;4.35;3.92;;;9.70;99.90;;;;;;2074663;28;20045;-74
2023/11/11 01:44:26;;;;;;;5.50;4.95;;;9.70;99.90;;;;;;2074450;28;20051;-76
2023/11/11 01:45:27;;;;;;;6.10;5.43;;;9.70;99.90;;;;;;2073432;28;20026;-73
2023/11/11 01:46:28;;;;;;;6.18;5.57;;;9.70;99.90;;;;;;2074844;28;20083;-75
2023/11/11 01:47:29;;;;;;;5.90;5.30;;;9.70;99.90;;;;;;2072917;28;20068;-74
2023/11/11 01:48:34;;;;;;;7.15;6.35;;;9.70;99.90;;;;;;2075225;28;20037;-74
2023/11/11 01:49:35;;;;;;;7.75;5.72;;;9.70;99.90;;;;;;2071562;28;20465;-73
2023/11/11 01:50:39;;;;;;;7.75;7.05;;;9.70;99.90;;;;;;2074441;28;20097;-73
2023/11/11 01:51:40;;;;;;;7.47;6.57;;;9.70;99.90;;;;;;2075100;28;20526;-74
2023/11/11 01:52:41;;;;;;;8.30;7.50;;;9.70;99.90;;;;;;2073355;28;20367;-74
2023/11/11 01:53:42;;;;;;;9.38;8.32;;;9.70;99.90;;;;;;2073480;28;20033;-75
2023/11/11 01:54:43;;;;;;;11.18;8.65;;;9.70;99.90;;;;;;2071747;28;20038;-75
2023/11/11 01:55:44;;;;;;;10.82;8.85;;;9.70;99.90;;;;;;2072599;28;20033;-74
2023/11/11 01:56:46;;;;;;;12.40;9.77;;;9.60;99.90;;;;;;2074333;28;20021;-73
2023/11/11 01:57:46;;;;;;;12.27;10.02;;;9.70;99.90;;;;;;2074045;28;20403;-75
2023/11/11 01:58:47;;;;;;;11.27;8.60;;;9.70;99.90;;;;;;2076020;28;20195;-72
2023/11/11 01:59:48;;;;;;;12.27;9.60;;;9.70;99.90;;;;;;2070493;28;20137;-75
2023/11/11 02:00:51;;;;;;;12.75;11.25;;;9.60;99.90;;;;;;2074237;28;20072;-74
2023/11/11 02:01:52;;;;;;;14.38;11.95;;;9.60;99.90;;;;;;2074815;28;20117;-75
2023/11/11 02:02:53;;;;;;;15.75;12.43;;;9.70;99.90;;;;;;2075327;28;20075;-74
2023/11/11 02:03:54;;;;;;;14.38;12.85;;;9.60;99.90;;;;;;2075344;28;20037;-74
2023/11/11 02:04:54;;;;;;;15.23;12.82;;;9.60;99.90;;;;;;2073563;28;20021;-74
2023/11/11 02:05:55;;;;;;;15.27;13.00;;;9.60;99.90;;;;;;2074506;28;20029;-73
2023/11/11 02:06:56;;;;;;;16.90;14.55;;;9.60;99.90;;;;;;2074191;28;20057;-75
2023/11/11 02:07:58;;;;;;;18.17;14.90;;;9.60;99.90;;;;;;2074559;28;20018;-73
2023/11/11 02:08:59;;;;;;;18.83;14.70;;;9.60;99.90;;;;;;2073073;28;20113;-73
2023/11/11 02:10:02;;;;;;;18.45;15.52;;;9.60;99.90;;;;;;2074433;28;20037;-74
2023/11/11 02:11:08;;;;;;;18.25;16.08;;;9.60;99.90;;;;;;2081346;28;20010;-73
2023/11/11 02:12:09;;;;;;;18.85;16.27;;;9.70;99.90;;;;;;2075511;28;20374;-74
2023/11/11 02:13:10;;;;;;;19.42;15.68;;;9.60;99.90;;;;;;2077856;28;20025;-74
2023/11/11 02:14:12;;;;;;;19.42;16.55;;;9.60;99.90;;;;;;2075563;28;20042;-72
2023/11/11 02:15:15;;;;;;;19.20;17.15;;;9.70;99.90;;;;;;2074931;28;20598;-74
2023/11/11 02:16:16;;;;;;;18.75;16.70;;;9.70;99.90;;;;;;2074533;28;20030;-73
2023/11/11 02:17:17;;;;;;;20.98;18.20;;;9.70;99.90;;;;;;2073087;28;20020;-74
2023/11/11 02:18:17;;;;;;;21.23;19.02;;;9.70;99.90;;;;;;2075684;28;20036;-74
2023/11/11 02:19:18;;;;;;;20.58;18.38;;;9.70;99.90;;;;;;2075594;28;20032;-73
2023/11/11 02:20:18;;;;;;;21.40;19.10;;;9.70;99.90;;;;;;2074743;28;20033;-74
2023/11/11 02:21:19;;;;;;;24.35;19.08;;;9.70;99.90;;;;;;2074597;28;20030;-74
2023/11/11 02:22:20;;;;;;;23.27;19.20;;;9.70;99.90;;;;;;2074373;28;20034;-74
2023/11/11 02:23:21;;;;;;;21.65;19.38;;;9.70;99.90;;;;;;2075865;28;20026;-73
2023/11/11 02:24:23;;;;;;;23.05;19.02;;;9.70;99.90;;;;;;2076875;28;20060;-74
2023/11/11 02:25:23;;;;;;;21.88;19.48;;;9.70;99.90;;;;;;2074718;28;20030;-74
2023/11/11 02:26:24;;;;;;;27.00;20.92;;;9.70;99.90;;;;;;2075706;28;20474;-74
2023/11/11 02:27:25;;;;;;;24.15;20.65;;;9.70;99.90;;;;;;2075252;28;20495;-73
2023/11/11 02:28:25;;;;;;;27.38;21.30;;;9.70;99.90;;;;;;2074813;28;20124;-75
2023/11/11 02:29:26;;;;;;;25.98;21.25;;;9.70;99.90;;;;;;2075295;28;20041;-74
2023/11/11 02:30:27;;;;;;;25.95;21.17;;;9.70;99.90;;;;;;2076427;28;20084;-74
2023/11/11 02:31:27;;;;;;;25.85;21.90;;;9.70;99.90;;;;;;2077419;28;20034;-74
2023/11/11 02:32:28;;;;;;;25.85;21.85;;;9.70;99.90;;;;;;2075811;28;20559;-73
2023/11/11 02:33:29;;;;;;;25.33;20.88;;;9.70;99.90;;;;;;2073925;28;20033;-73
2023/11/11 02:34:30;;;;;;;24.17;21.63;;;9.70;99.90;;;;;;2075862;28;20029;-73
2023/11/11 02:35:30;;;;;;;27.10;22.38;;;9.70;99.90;;;;;;2074247;28;20378;-74
2023/11/11 02:36:31;;;;;;;24.73;21.95;;;9.60;99.90;;;;;;2074131;28;20080;-74
2023/11/11 02:37:32;;;;;;;23.40;20.80;;;9.60;99.90;;;;;;2075155;28;20023;-73
2023/11/11 02:38:32;;;;;;;25.17;21.42;;;9.60;99.90;;;;;;2075335;28;20088;-74
2023/11/11 02:39:34;;;;;;;24.33;21.17;;;9.60;99.90;;;;;;2073666;28;20445;-74
2023/11/11 02:40:35;;;;;;;25.58;22.77;;;9.60;99.90;;;;;;2075847;28;20030;-73
2023/11/11 02:41:36;;;;;;;24.73;21.63;;;9.60;99.90;;;;;;2075832;28;20022;-75
2023/11/11 02:42:36;;;;;;;28.85;22.67;;;9.60;99.90;;;;;;2075263;28;20022;-73
2023/11/11 02:43:37;;;;;;;26.67;21.90;;;9.60;99.90;;;;;;2074561;28;20034;-74
2023/11/11 02:44:37;;;;;;;27.20;23.08;;;9.60;99.90;;;;;;2073841;28;20029;-75
2023/11/11 02:45:38;;;;;;;24.73;21.92;;;9.60;99.90;;;;;;2076948;28;20119;-72
2023/11/11 02:46:39;;;;;;;24.63;20.60;;;9.60;99.90;;;;;;2074366;28;20010;-73
2023/11/11 02:47:39;;;;;;;23.17;19.27;;;9.70;99.90;;;;;;2075024;28;20021;-74
2023/11/11 02:48:40;;;;;;;23.42;20.67;;;9.70;99.90;;;;;;2076647;28;20020;-73
2023/11/11 02:53:35;;;;;;;25.77;22.33;;;9.60;99.90;;;;;;2076029;28;20064;-73
2023/11/11 02:54:35;;;;;;;24.65;21.23;;;9.50;99.90;;;;;;2074056;28;20022;-73
2023/11/11 02:55:36;;;;;;;28.13;22.63;;;9.50;99.90;;;;;;2075263;28;20041;-73
2023/11/11 02:56:37;;;;;;;22.08;18.00;;;9.50;99.90;;;;;;2075044;28;20022;-74
2023/11/11 02:57:37;;;;;;;26.50;21.02;;;9.50;99.90;;;;;;2074933;28;20026;-73
2023/11/11 02:58:38;;;;;;;27.27;21.90;;;9.50;99.90;;;;;;2076904;28;20091;-73
2023/11/11 02:59:42;;;;;;;26.52;21.10;;;9.50;99.90;;;;;;2074068;28;20026;-73
2023/11/11 03:00:43;;;;;;;27.00;21.55;;;9.50;99.90;;;;;;2076570;28;20088;-73
2023/11/11 03:01:44;;;;;;;24.20;20.30;;;9.50;99.90;;;;;;2077017;28;20111;-73
2023/11/11 03:02:44;;;;;;;28.05;21.25;;;9.50;99.90;;;;;;2075994;28;20030;-75
2023/11/11 03:03:45;;;;;;;24.80;21.17;;;9.50;99.90;;;;;;2075290;28;20026;-74
2023/11/11 03:04:45;;;;;;;24.15;20.38;;;9.50;99.90;;;;;;2075827;28;20034;-74
2023/11/11 03:05:46;;;;;;;34.83;21.52;;;9.50;99.90;;;;;;2074320;28;20022;-74
2023/11/11 03:06:47;;;;;;;23.92;21.33;;;9.50;99.90;;;;;;2073571;28;20030;-73
2023/11/11 03:07:47;;;;;;;22.52;20.08;;;9.60;99.90;;;;;;2078029;28;20030;-74
2023/11/11 03:08:48;;;;;;;22.75;20.25;;;9.50;99.90;;;;;;2077852;28;20024;-73
2023/11/11 03:09:48;;;;;;;24.98;19.52;;;9.60;99.90;;;;;;2074503;28;20589;-74
2023/11/11 03:10:49;;;;;;;23.75;20.42;;;9.50;99.90;;;;;;2074860;28;20092;-73
2023/11/11 03:11:50;;;;;;;23.65;20.05;;;9.50;99.90;;;;;;2077117;28;20044;-74
2023/11/11 03:12:52;;;;;;;23.58;21.05;;;9.50;99.90;;;;;;2075220;28;20010;-73
2023/11/11 03:13:52;;;;;;;22.75;20.35;;;9.50;99.90;;;;;;2074849;28;20025;-74
2023/11/11 03:18:48;;;;;;;22.83;19.25;;;9.40;99.90;;;;;;2073950;28;20416;-74
2023/11/11 03:19:48;;;;;;;23.27;20.20;;;9.40;99.90;;;;;;2075437;28;20571;-74
2023/11/11 03:20:49;;;;;;;23.25;19.33;;;9.40;99.90;;;;;;2076890;28;20022;-73
2023/11/11 03:21:49;;;;;;;27.35;20.02;;;9.40;99.90;;;;;;2074362;28;20548;-74
2023/11/11 03:22:50;;;;;;;26.48;20.63;;;9.40;99.90;;;;;;2074738;28;20025;-72
2023/11/11 03:23:51;;;;;;;20.35;17.33;;;9.40;99.90;;;;;;2073854;28;20025;-73
2023/11/11 03:24:51;;;;;;;23.33;19.77;;;9.40;99.90;;;;;;2074146;28;20071;-73
2023/11/11 03:25:52;;;;;;;25.98;19.90;;;9.40;99.90;;;;;;2074682;28;20020;-73
2023/11/11 03:26:53;;;;;;;18.90;16.67;;;9.40;99.90;;;;;;2073430;28;20026;-73
2023/11/11 03:27:53;;;;;;;24.15;19.33;;;9.40;99.90;;;;;;2078536;28;20021;-74
2023/11/11 03:28:54;;;;;;;22.27;19.65;;;9.40;99.90;;;;;;2076747;28;20084;-72
2023/11/11 03:29:55;;;;;;;20.52;17.70;;;9.40;99.90;;;;;;2081977;28;20862;-74
2023/11/11 03:30:55;;;;;;;23.33;20.55;;;9.40;99.90;;;;;;2081830;28;20551;-74
2023/11/11 03:31:56;;;;;;;22.10;19.55;;;9.40;99.90;;;;;;2075393;28;20021;-74
2023/11/11 03:32:56;;;;;;;18.98;17.00;;;9.40;99.90;;;;;;2075403;28;20590;-73
2023/11/11 03:33:57;;;;;;;22.23;18.13;;;9.40;99.90;;;;;;2074278;28;20105;-73
2023/11/11 03:34:58;;;;;;;20.35;16.58;;;9.40;99.90;;;;;;2075000;28;20495;-74
2023/11/11 03:35:59;;;;;;;21.67;19.38;;;9.40;99.90;;;;;;2074500;28;20029;-74
2023/11/11 03:37:00;;;;;;;21.50;17.95;;;9.30;99.90;;;;;;2075310;28;20073;-74
2023/11/11 03:38:00;;;;;;;19.58;17.08;;;9.40;99.90;;;;;;2073861;28;20052;-74
2023/11/11 03:39:01;;;;;;;18.20;16.23;;;9.30;99.90;;;;;;2073258;28;20513;-74
2023/11/11 03:40:02;;;;;;;23.30;18.50;;;9.30;99.90;;;;;;2075978;28;20092;-72
2023/11/11 03:41:02;;;;;;;22.02;18.27;;;9.30;99.90;;;;;;2075629;28;20029;-74
2023/11/11 03:42:03;;;;;;;22.98;19.95;;;9.30;99.90;;;;;;2073952;28;20017;-72
2023/11/11 03:43:04;;;;;;;24.10;19.63;;;9.30;99.90;;;;;;2074562;28;20021;-74
2023/11/11 03:44:04;;;;;;;23.80;19.75;;;9.30;99.90;;;;;;2073844;28;20033;-74
2023/11/11 03:45:05;;;;;;;23.52;19.77;;;9.30;99.90;;;;;;2074505;28;20036;-73
2023/11/11 03:46:06;;;;;;;20.95;18.00;;;9.30;99.90;;;;;;2076230;28;20410;-74
2023/11/11 03:47:07;;;;;;;24.15;19.30;;;9.20;99.90;;;;;;2077931;28;20105;-73
2023/11/11 03:48:08;;;;;;;22.40;18.95;;;9.20;99.90;;;;;;2075037;28;20014;-74
2023/11/11 03:49:08;;;;;;;21.27;19.02;;;9.20;99.90;;;;;;2073869;28;20029;-74
2023/11/11 03:50:09;;;;;;;24.27;18.95;;;9.20;99.90;;;;;;2075023;28;20076;-75
2023/11/11 03:51:09;;;;;;;22.52;18.20;;;9.20;99.90;;;;;;2073521;28;20426;-75
2023/11/11 03:52:10;;;;;;;22.23;19.30;;;9.20;99.90;;;;;;2075175;28;20018;-74
2023/11/11 03:53:11;;;;;;;21.55;19.25;;;9.20;99.90;;;;;;2073872;28;20506;-74
2023/11/11 03:54:11;;;;;;;20.13;16.67;;;9.20;99.90;;;;;;2073887;28;20045;-72
2023/11/11 03:59:06;;;;;;;21.90;16.77;;;9.10;99.90;;;;;;2074416;28;20030;-73
2023/11/11 04:00:16;;;;;;;20.13;16.60;;;9.10;99.90;;;;;;2074662;28;20101;-74
2023/11/11 04:01:17;;;;;;;19.75;16.65;;;9.10;99.90;;;;;;2074160;28;20079;-71
2023/11/11 04:02:18;;;;;;;23.67;17.70;;;9.10;99.90;;;;;;2073860;28;20078;-74
2023/11/11 04:03:18;;;;;;;21.92;17.35;;;9.10;99.90;;;;;;2073912;28;20380;-73
2023/11/11 04:04:19;;;;;;;20.17;17.38;;;9.10;99.90;;;;;;2075844;28;20065;-75
2023/11/11 04:05:20;;;;;;;18.98;16.92;;;9.10;99.90;;;;;;2074013;28;20113;-73
2023/11/11 04:06:21;;;;;;;19.70;17.38;;;9.10;99.90;;;;;;2074161;28;20033;-75
2023/11/11 04:07:21;;;;;;;17.90;15.95;;;9.10;99.90;;;;;;2074330;28;20053;-74
2023/11/11 04:08:22;;;;;;;19.70;17.45;;;9.10;99.90;;;;;;2074835;28;20033;-73
2023/11/11 04:09:23;;;;;;;18.33;16.48;;;9.10;99.90;;;;;;2073400;28;20352;-74
2023/11/11 04:10:23;;;;;;;19.25;16.85;;;9.10;99.90;;;;;;2072012;28;20358;-75
2023/11/11 04:11:24;;;;;;;17.83;15.63;;;9.10;99.90;;;;;;2073708;28;20034;-74
2023/11/11 04:12:24;;;;;;;17.75;15.88;;;9.10;99.90;;;;;;2074983;28;20494;-73
2023/11/11 04:13:25;;;;;;;21.35;16.67;;;9.10;99.90;;;;;;2074024;28;20022;-75
2023/11/11 04:14:26;;;;;;;19.10;15.63;;;9.10;99.90;;;;;;2074006;28;20030;-74
2023/11/11 04:15:27;;;;;;;17.90;16.10;;;9.10;99.90;;;;;;2075020;28;20036;-74
2023/11/11 04:16:29;;;;;;;18.42;15.43;;;9.10;99.90;;;;;;2075775;28;20065;-73
2023/11/11 04:17:30;;;;;;;19.88;15.80;;;9.20;99.90;;;;;;2076561;28;20036;-74
2023/11/11 04:24:22;;;;;;;18.38;13.48;;;9.00;99.90;;;;;;2075061;28;20112;-75
2023/11/11 04:25:22;;;;;;;17.85;13.95;;;9.00;99.90;;;;;;2074634;28;20467;-74
2023/11/11 04:26:23;;;;;;;17.02;13.30;;;9.00;99.90;;;;;;2073941;28;20662;-75
2023/11/11 04:27:23;;;;;;;15.50;13.85;;;9.00;99.90;;;;;;2074103;28;20029;-76
2023/11/11 04:28:28;;;;;;;17.92;14.68;;;8.90;99.90;;;;;;2073811;28;20632;-75
2023/11/11 04:29:30;;;;;;;17.42;14.38;;;9.00;99.90;;;;;;2074360;28;20022;-74
2023/11/11 04:30:30;;;;;;;16.67;14.48;;;8.90;99.90;;;;;;2074358;28;20024;-73
2023/11/11 04:31:31;;;;;;;15.02;12.50;;;8.90;99.90;;;;;;2072181;28;20076;-75
2023/11/11 04:32:32;;;;;;;15.65;13.15;;;9.00;99.90;;;;;;2074136;28;20041;-75
2023/11/11 04:33:33;;;;;;;14.80;13.23;;;9.00;99.90;;;;;;2074422;28;20601;-74
2023/11/11 04:34:33;;;;;;;16.10;13.00;;;9.00;99.90;;;;;;2074212;28;20037;-75
2023/11/11 04:35:34;;;;;;;14.15;12.68;;;9.00;99.90;;;;;;2074839;28;20029;-74
2023/11/11 04:36:36;;;;;;;19.13;13.50;;;9.00;99.90;;;;;;2074728;28;20029;-74
2023/11/11 04:37:37;;;;;;;15.25;13.60;;;9.00;99.90;;;;;;2074197;28;20374;-75
2023/11/11 04:38:37;;;;;;;18.95;14.57;;;9.00;99.90;;;;;;2074000;28;20026;-74
2023/11/11 04:39:40;;;;;;;17.20;13.80;;;9.00;99.90;;;;;;2074419;28;20457;-75
2023/11/11 04:40:43;;;;;;;19.88;13.80;;;9.00;99.90;;;;;;2074237;28;20478;-73
2023/11/11 04:41:44;;;;;;;17.75;14.13;;;9.00;99.90;;;;;;2073990;28;20060;-74
2023/11/11 04:42:44;;;;;;;16.27;14.10;;;9.00;99.90;;;;;;2077649;28;20378;-74
2023/11/11 04:43:46;;;;;;;19.42;14.07;;;9.00;99.90;;;;;;2078294;28;20025;-73
2023/11/11 04:44:48;;;;;;;16.98;14.05;;;9.00;99.90;;;;;;2075205;28;20039;-74
2023/11/11 04:45:48;;;;;;;19.38;14.93;;;9.00;99.90;;;;;;2075837;28;20419;-73
2023/11/11 04:46:52;;;;;;;16.63;14.60;;;9.00;99.90;;;;;;2074068;28;20379;-74
2023/11/11 04:47:53;;;;;;;17.95;15.25;;;9.00;99.90;;;;;;2074711;28;20481;-73
2023/11/11 04:48:54;;;;;;;17.52;15.15;;;9.00;99.90;;;;;;2075123;28;20018;-72
2023/11/11 04:49:55;;;;;;;17.48;14.82;;;9.00;99.90;;;;;;2074242;28;20018;-76
2023/11/11 04:50:56;;;;;;;18.80;14.48;;;9.00;99.90;;;;;;2073425;28;20494;-75
2023/11/11 04:51:57;;;;;;;18.05;14.07;;;9.00;99.90;;;;;;2072430;28;20374;-73
2023/11/11 05:00:46;;;;;;;19.77;13.38;;;8.90;99.90;;;;;;2074035;28;20136;-74
2023/11/11 05:01:47;;;;;;;17.42;14.07;;;8.90;99.90;;;;;;2074447;28;20025;-72
2023/11/11 05:02:48;;;;;;;16.73;13.95;;;8.90;99.90;;;;;;2074367;28;20034;-73
2023/11/11 05:03:49;;;;;;;15.20;12.02;;;8.90;99.90;;;;;;2073516;28;20022;-75
2023/11/11 05:04:49;;;;;;;21.55;14.80;;;8.90;99.90;;;;;;2077008;28;20104;-73
2023/11/11 05:05:50;;;;;;;18.13;13.85;;;9.00;99.90;;;;;;2073978;28;20018;-74
2023/11/11 05:06:50;;;;;;;17.67;13.57;;;9.00;99.90;;;;;;2074931;28;20026;-73
2023/11/11 05:07:51;;;;;;;15.25;13.15;;;9.00;99.90;;;;;;2073601;28;20025;-75
2023/11/11 05:08:53;;;;;;;16.27;13.02;;;9.00;99.90;;;;;;2072876;28;20022;-71
2023/11/11 05:09:54;;;;;;;18.92;14.13;;;9.00;99.90;;;;;;2073999;28;20014;-75
2023/11/11 05:10:55;;;;;;;18.00;14.32;;;9.00;99.90;;;;;;2075407;28;20014;-75
2023/11/11 05:11:56;;;;;;;19.08;14.18;;;9.00;99.90;;;;;;2076462;28;20116;-74
2023/11/11 05:12:57;;;;;;;18.50;13.63;;;9.00;99.90;;;;;;2074234;28;20014;-74
2023/11/11 05:13:59;;;;;;;18.42;14.90;;;9.00;99.90;;;;;;2073499;28;20028;-73
2023/11/11 05:15:00;;;;;;;17.15;14.00;;;9.00;99.90;;;;;;2077061;28;20029;-72
2023/11/11 05:16:10;;;;;;;21.55;15.55;;;9.00;99.90;;;;;;2077087;28;20108;-75
2023/11/11 05:17:13;;;;;;;;;;;9.00;99.90;;;;;;2075518;28;20615;-74
2023/11/11 05:18:13;;;;;;;23.10;15.00;;;8.90;99.90;;;;;;2072476;28;19979;-74
2023/11/11 05:19:14;;;;;;;21.45;16.38;;;8.90;99.90;;;;;;2074568;28;20963;-74
2023/11/11 05:20:17;;;;;;;21.52;16.42;;;9.00;99.90;;;;;;2074960;28;20056;-74
2023/11/11 05:21:17;;;;;;;26.17;16.45;;;9.00;99.90;;;;;;2072214;28;20757;-75
2023/11/11 05:22:18;;;;;;;22.55;16.08;;;9.00;99.90;;;;;;2074639;28;20183;-75
2023/11/11 05:23:19;;;;;;;23.20;15.35;;;9.00;99.90;;;;;;2073432;28;20031;-74
2023/11/11 05:24:20;;;;;;;24.33;16.25;;;9.00;99.90;;;;;;2073588;28;20401;-74
2023/11/11 05:25:20;;;;;;;20.48;15.00;;;9.00;99.90;;;;;;2074839;28;20068;-75
2023/11/11 05:26:21;;;;;;;20.35;14.63;;;9.00;99.90;;;;;;2074935;28;20653;-75
2023/11/11 05:27:22;;;;;;;23.08;15.38;;;9.00;99.90;;;;;;2075233;28;20026;-73
2023/11/11 05:28:22;;;;;;;19.88;15.25;;;9.00;99.90;;;;;;2074108;28;20040;-73
2023/11/11 05:29:23;;;;;;;22.10;13.93;;;9.00;99.90;;;;;;2073370;28;20025;-75
2023/11/11 05:30:25;;;;;;;19.90;14.65;;;9.00;99.90;;;;;;2074316;28;20022;-74
2023/11/11 05:31:27;;;;;;;18.13;13.15;;;9.00;99.90;;;;;;2075741;28;20025;-75
2023/11/11 05:32:28;;;;;;;19.15;12.82;;;9.00;99.90;;;;;;2074025;28;20428;-75
2023/11/11 05:33:29;;;;;;;18.55;14.05;;;9.00;99.90;;;;;;2074257;28;20503;-74
2023/11/11 05:34:29;;;;;;;22.50;14.05;;;9.00;99.90;;;;;;2073139;28;20799;-75
2023/11/11 05:35:30;;;;;;;20.33;14.10;;;9.00;99.90;;;;;;2074209;28;20089;-72
2023/11/11 05:36:33;;;;;;;21.52;13.15;;;9.00;99.90;;;;;;2074424;28;20489;-75
2023/11/11 05:37:33;;;;;;;23.75;13.15;;;9.00;99.90;;;;;;2073315;28;20570;-74
2023/11/11 05:38:34;;;;;;;19.95;12.20;;;9.00;99.90;;;;;;2075389;28;21322;-75
2023/11/11 05:39:34;;;;;;;21.08;12.25;;;9.00;99.90;;;;;;2071337;28;20025;-73
2023/11/11 05:40:35;;;;;;;21.00;13.32;;;9.00;99.90;;;;;;2075534;28;20025;-74
2023/11/11 05:41:37;;;;;;;20.50;12.55;;;9.00;99.90;;;;;;2073809;28;20022;-75
2023/11/11 05:42:38;;;;;;;21.85;13.07;;;9.00;99.90;;;;;;2073222;28;20064;-75
2023/11/11 05:43:38;;;;;;;17.75;12.02;;;8.90;99.90;;;;;;2075559;28;20025;-75
2023/11/11 05:44:42;;;;;;;18.33;11.30;;;9.00;99.90;;;;;;2074186;28;21404;-75
2023/11/11 05:45:43;;;;;;;20.08;11.48;;;9.00;99.90;;;;;;2073408;28;20030;-74
2023/11/11 05:46:43;;;;;;;17.63;10.90;;;8.90;99.90;;;;;;2075751;28;20030;-74
2023/11/11 05:47:44;;;;;;;17.15;11.00;;;9.00;99.90;;;;;;2075991;28;20548;-73
2023/11/11 05:48:45;;;;;;;14.27;9.75;;;9.00;99.90;;;;;;2075904;28;20022;-73
2023/11/11 05:49:46;;;;;;;14.98;9.50;;;9.00;99.90;;;;;;2074090;28;20033;-75